sensor_id;sensor_type;location;lat;lon;timestamp;P1;durP1;ratioP1;P2;durP2;ratioP2
20042;SDS011;10182;52.896;6.496;2023-12-20T00:01:42;15.00;;;2.50;;
20042;SDS011;10182;52.896;6.496;2023-12-20T00:06:45;13.80;;;2.60;;
20042;SDS011;10182;52.896;6.496;2023-12-20T00:11:46;10.23;;;3.23;;
20042;SDS011;10182;52.896;6.496;2023-12-20T00:16:48;11.10;;;2.53;;
20042;SDS011;10182;52.896;6.496;2023-12-20T00:21:51;15.50;;;3.13;;
20042;SDS011;10182;52.896;6.496;2023-12-20T00:26:53;9.37;;;3.10;;
20042;SDS011;10182;52.896;6.496;2023-12-20T00:31:54;6.33;;;2.27;;
20042;SDS011;10182;52.896;6.496;2023-12-20T00:36:57;11.97;;;2.77;;
20042;SDS011;10182;52.896;6.496;2023-12-20T00:41:59;13.57;;;3.10;;
20042;SDS011;10182;52.896;6.496;2023-12-20T00:47:00;10.93;;;2.30;;
20042;SDS011;10182;52.896;6.496;2023-12-20T00:52:04;11.13;;;2.53;;
20042;SDS011;10182;52.896;6.496;2023-12-20T00:57:06;15.83;;;2.87;;
20042;SDS011;10182;52.896;6.496;2023-12-20T01:02:07;14.13;;;2.83;;
20042;SDS011;10182;52.896;6.496;2023-12-20T01:07:11;17.00;;;2.87;;
20042;SDS011;10182;52.896;6.496;2023-12-20T01:12:13;11.20;;;3.37;;
20042;SDS011;10182;52.896;6.496;2023-12-20T01:17:14;15.70;;;2.93;;
20042;SDS011;10182;52.896;6.496;2023-12-20T01:22:17;15.07;;;3.50;;
20042;SDS011;10182;52.896;6.496;2023-12-20T01:27:19;19.77;;;3.67;;
20042;SDS011;10182;52.896;6.496;2023-12-20T01:32:21;13.00;;;3.23;;
20042;SDS011;10182;52.896;6.496;2023-12-20T01:37:24;11.93;;;2.93;;
20042;SDS011;10182;52.896;6.496;2023-12-20T01:42:26;12.60;;;3.30;;
20042;SDS011;10182;52.896;6.496;2023-12-20T01:47:28;16.30;;;3.23;;
20042;SDS011;10182;52.896;6.496;2023-12-20T01:52:31;13.80;;;3.00;;
20042;SDS011;10182;52.896;6.496;2023-12-20T01:57:34;9.60;;;2.63;;
20042;SDS011;10182;52.896;6.496;2023-12-20T02:02:36;21.00;;;3.63;;
20042;SDS011;10182;52.896;6.496;2023-12-20T02:07:41;17.53;;;3.60;;
20042;SDS011;10182;52.896;6.496;2023-12-20T02:12:43;15.03;;;3.20;;
20042;SDS011;10182;52.896;6.496;2023-12-20T02:17:45;20.17;;;3.73;;
20042;SDS011;10182;52.896;6.496;2023-12-20T02:22:49;14.67;;;3.47;;
20042;SDS011;10182;52.896;6.496;2023-12-20T02:27:51;22.83;;;4.30;;
20042;SDS011;10182;52.896;6.496;2023-12-20T02:32:53;14.83;;;3.03;;
20042;SDS011;10182;52.896;6.496;2023-12-20T02:37:57;16.30;;;3.67;;
20042;SDS011;10182;52.896;6.496;2023-12-20T02:42:58;18.63;;;3.10;;
20042;SDS011;10182;52.896;6.496;2023-12-20T02:48:01;17.70;;;3.40;;
20042;SDS011;10182;52.896;6.496;2023-12-20T02:53:05;16.50;;;3.63;;
20042;SDS011;10182;52.896;6.496;2023-12-20T02:58:06;21.43;;;4.77;;
20042;SDS011;10182;52.896;6.496;2023-12-20T03:03:08;11.40;;;3.03;;
20042;SDS011;10182;52.896;6.496;2023-12-20T03:08:11;22.73;;;4.27;;
20042;SDS011;10182;52.896;6.496;2023-12-20T03:13:13;22.17;;;4.70;;
20042;SDS011;10182;52.896;6.496;2023-12-20T03:18:14;27.20;;;4.60;;
20042;SDS011;10182;52.896;6.496;2023-12-20T03:23:18;19.87;;;4.07;;
20042;SDS011;10182;52.896;6.496;2023-12-20T03:28:19;23.43;;;4.57;;
20042;SDS011;10182;52.896;6.496;2023-12-20T03:33:21;31.93;;;4.97;;
20042;SDS011;10182;52.896;6.496;2023-12-20T03:38:24;29.40;;;6.00;;
20042;SDS011;10182;52.896;6.496;2023-12-20T03:43:25;17.03;;;5.33;;
20042;SDS011;10182;52.896;6.496;2023-12-20T03:48:27;31.23;;;5.10;;
20042;SDS011;10182;52.896;6.496;2023-12-20T03:53:30;25.57;;;5.10;;
20042;SDS011;10182;52.896;6.496;2023-12-20T03:58:32;23.43;;;5.03;;
20042;SDS011;10182;52.896;6.496;2023-12-20T04:03:34;27.90;;;5.13;;
20042;SDS011;10182;52.896;6.496;2023-12-20T04:08:38;31.37;;;5.90;;
20042;SDS011;10182;52.896;6.496;2023-12-20T04:13:39;27.30;;;5.30;;
20042;SDS011;10182;52.896;6.496;2023-12-20T04:18:41;19.93;;;5.23;;
20042;SDS011;10182;52.896;6.496;2023-12-20T04:23:44;27.93;;;5.43;;
20042;SDS011;10182;52.896;6.496;2023-12-20T04:28:46;23.40;;;5.83;;
20042;SDS011;10182;52.896;6.496;2023-12-20T04:33:47;25.03;;;4.73;;
20042;SDS011;10182;52.896;6.496;2023-12-20T04:38:50;24.33;;;5.53;;
20042;SDS011;10182;52.896;6.496;2023-12-20T04:43:52;21.23;;;5.73;;
20042;SDS011;10182;52.896;6.496;2023-12-20T04:48:54;20.13;;;5.53;;
20042;SDS011;10182;52.896;6.496;2023-12-20T04:53:57;22.87;;;5.17;;
20042;SDS011;10182;52.896;6.496;2023-12-20T04:58:58;23.03;;;5.70;;
20042;SDS011;10182;52.896;6.496;2023-12-20T05:04:00;32.67;;;6.77;;
20042;SDS011;10182;52.896;6.496;2023-12-20T05:09:03;25.87;;;5.73;;
20042;SDS011;10182;52.896;6.496;2023-12-20T05:14:05;22.73;;;5.57;;
20042;SDS011;10182;52.896;6.496;2023-12-20T05:19:07;22.37;;;5.40;;
20042;SDS011;10182;52.896;6.496;2023-12-20T05:24:10;30.70;;;6.03;;
20042;SDS011;10182;52.896;6.496;2023-12-20T05:29:12;28.13;;;6.37;;
20042;SDS011;10182;52.896;6.496;2023-12-20T05:34:13;22.57;;;5.30;;
20042;SDS011;10182;52.896;6.496;2023-12-20T05:39:16;18.50;;;5.67;;
20042;SDS011;10182;52.896;6.496;2023-12-20T05:44:18;17.87;;;5.40;;
20042;SDS011;10182;52.896;6.496;2023-12-20T05:49:20;22.83;;;5.13;;
20042;SDS011;10182;52.896;6.496;2023-12-20T05:54:23;24.57;;;5.27;;
20042;SDS011;10182;52.896;6.496;2023-12-20T05:59:25;30.60;;;5.93;;
20042;SDS011;10182;52.896;6.496;2023-12-20T06:04:26;22.37;;;5.00;;
20042;SDS011;10182;52.896;6.496;2023-12-20T06:09:29;29.40;;;5.90;;
20042;SDS011;10182;52.896;6.496;2023-12-20T06:14:31;21.90;;;5.83;;
20042;SDS011;10182;52.896;6.496;2023-12-20T06:19:33;20.90;;;5.43;;
20042;SDS011;10182;52.896;6.496;2023-12-20T06:24:36;19.63;;;4.53;;
20042;SDS011;10182;52.896;6.496;2023-12-20T06:29:37;29.10;;;5.57;;
20042;SDS011;10182;52.896;6.496;2023-12-20T06:34:40;25.57;;;5.63;;
20042;SDS011;10182;52.896;6.496;2023-12-20T06:39:43;18.70;;;4.70;;
20042;SDS011;10182;52.896;6.496;2023-12-20T06:44:46;25.87;;;5.03;;
20042;SDS011;10182;52.896;6.496;2023-12-20T06:49:48;24.10;;;5.30;;
20042;SDS011;10182;52.896;6.496;2023-12-20T06:54:51;24.73;;;4.63;;
20042;SDS011;10182;52.896;6.496;2023-12-20T06:59:53;24.33;;;5.47;;
20042;SDS011;10182;52.896;6.496;2023-12-20T07:04:54;24.97;;;5.37;;
20042;SDS011;10182;52.896;6.496;2023-12-20T07:09:57;19.40;;;5.53;;
20042;SDS011;10182;52.896;6.496;2023-12-20T07:14:59;24.67;;;5.20;;
20042;SDS011;10182;52.896;6.496;2023-12-20T07:20:01;25.50;;;5.37;;
20042;SDS011;10182;52.896;6.496;2023-12-20T07:25:05;22.53;;;6.07;;
20042;SDS011;10182;52.896;6.496;2023-12-20T07:30:08;19.60;;;5.30;;
20042;SDS011;10182;52.896;6.496;2023-12-20T07:35:10;24.40;;;5.90;;
20042;SDS011;10182;52.896;6.496;2023-12-20T07:40:14;22.07;;;5.63;;
20042;SDS011;10182;52.896;6.496;2023-12-20T07:45:17;28.40;;;6.23;;
20042;SDS011;10182;52.896;6.496;2023-12-20T07:50:18;21.90;;;5.90;;
20042;SDS011;10182;52.896;6.496;2023-12-20T07:55:21;19.97;;;4.97;;
20042;SDS011;10182;52.896;6.496;2023-12-20T08:00:23;18.53;;;5.37;;
20042;SDS011;10182;52.896;6.496;2023-12-20T08:05:25;19.67;;;5.40;;
20042;SDS011;10182;52.896;6.496;2023-12-20T08:10:28;28.00;;;5.83;;
20042;SDS011;10182;52.896;6.496;2023-12-20T08:15:30;20.77;;;5.47;;
20042;SDS011;10182;52.896;6.496;2023-12-20T08:20:31;25.70;;;6.20;;
20042;SDS011;10182;52.896;6.496;2023-12-20T08:25:34;26.13;;;5.73;;
20042;SDS011;10182;52.896;6.496;2023-12-20T08:30:36;28.30;;;5.43;;
20042;SDS011;10182;52.896;6.496;2023-12-20T08:35:38;22.43;;;5.20;;
20042;SDS011;10182;52.896;6.496;2023-12-20T08:40:42;35.17;;;6.53;;
20042;SDS011;10182;52.896;6.496;2023-12-20T08:45:43;21.73;;;5.37;;
20042;SDS011;10182;52.896;6.496;2023-12-20T08:50:45;30.73;;;5.30;;
20042;SDS011;10182;52.896;6.496;2023-12-20T08:55:50;29.70;;;5.57;;
20042;SDS011;10182;52.896;6.496;2023-12-20T09:00:51;27.03;;;5.60;;
20042;SDS011;10182;52.896;6.496;2023-12-20T09:05:53;23.13;;;5.80;;
20042;SDS011;10182;52.896;6.496;2023-12-20T09:10:56;24.73;;;4.90;;
20042;SDS011;10182;52.896;6.496;2023-12-20T09:15:58;20.83;;;4.77;;
20042;SDS011;10182;52.896;6.496;2023-12-20T09:20:59;23.00;;;5.00;;
20042;SDS011;10182;52.896;6.496;2023-12-20T09:26:03;19.00;;;4.67;;
20042;SDS011;10182;52.896;6.496;2023-12-20T09:31:05;17.37;;;4.43;;
20042;SDS011;10182;52.896;6.496;2023-12-20T09:36:07;21.33;;;4.53;;
20042;SDS011;10182;52.896;6.496;2023-12-20T09:41:10;11.33;;;3.23;;
20042;SDS011;10182;52.896;6.496;2023-12-20T09:46:12;6.03;;;1.63;;
20042;SDS011;10182;52.896;6.496;2023-12-20T09:51:18;7.07;;;1.90;;
20042;SDS011;10182;52.896;6.496;2023-12-20T09:56:22;9.63;;;2.47;;
20042;SDS011;10182;52.896;6.496;2023-12-20T10:01:26;5.13;;;1.70;;
20042;SDS011;10182;52.896;6.496;2023-12-20T10:06:29;5.27;;;1.47;;
20042;SDS011;10182;52.896;6.496;2023-12-20T10:11:32;4.70;;;1.57;;
20042;SDS011;10182;52.896;6.496;2023-12-20T10:16:33;5.27;;;2.13;;
20042;SDS011;10182;52.896;6.496;2023-12-20T10:21:35;10.63;;;1.90;;
20042;SDS011;10182;52.896;6.496;2023-12-20T10:26:38;9.23;;;2.03;;
20042;SDS011;10182;52.896;6.496;2023-12-20T10:31:40;4.17;;;1.87;;
20042;SDS011;10182;52.896;6.496;2023-12-20T10:36:45;7.90;;;1.50;;
20042;SDS011;10182;52.896;6.496;2023-12-20T10:41:48;8.30;;;1.60;;
20042;SDS011;10182;52.896;6.496;2023-12-20T10:46:50;6.20;;;1.53;;
20042;SDS011;10182;52.896;6.496;2023-12-20T10:51:58;10.40;;;2.70;;
20042;SDS011;10182;52.896;6.496;2023-12-20T10:57:05;8.77;;;2.30;;
20042;SDS011;10182;52.896;6.496;2023-12-20T11:02:07;11.03;;;2.53;;
20042;SDS011;10182;52.896;6.496;2023-12-20T11:07:15;9.13;;;2.30;;
20042;SDS011;10182;52.896;6.496;2023-12-20T11:12:24;3.53;;;1.47;;
20042;SDS011;10182;52.896;6.496;2023-12-20T11:17:33;11.50;;;2.30;;
20042;SDS011;10182;52.896;6.496;2023-12-20T11:22:35;9.53;;;3.27;;
20042;SDS011;10182;52.896;6.496;2023-12-20T11:27:41;9.97;;;2.70;;
20042;SDS011;10182;52.896;6.496;2023-12-20T11:32:44;9.50;;;2.33;;
20042;SDS011;10182;52.896;6.496;2023-12-20T11:37:47;11.97;;;2.70;;
20042;SDS011;10182;52.896;6.496;2023-12-20T11:42:50;14.37;;;3.37;;
20042;SDS011;10182;52.896;6.496;2023-12-20T11:47:52;12.87;;;2.30;;
20042;SDS011;10182;52.896;6.496;2023-12-20T11:52:54;10.40;;;2.70;;
20042;SDS011;10182;52.896;6.496;2023-12-20T11:57:57;13.70;;;2.50;;
20042;SDS011;10182;52.896;6.496;2023-12-20T12:02:59;8.37;;;2.00;;
20042;SDS011;10182;52.896;6.496;2023-12-20T12:08:03;8.80;;;2.93;;
20042;SDS011;10182;52.896;6.496;2023-12-20T12:13:07;13.27;;;2.50;;
20042;SDS011;10182;52.896;6.496;2023-12-20T12:18:09;9.73;;;2.77;;
20042;SDS011;10182;52.896;6.496;2023-12-20T12:23:11;9.73;;;2.50;;
20042;SDS011;10182;52.896;6.496;2023-12-20T12:28:14;14.27;;;3.07;;
20042;SDS011;10182;52.896;6.496;2023-12-20T12:33:17;15.47;;;2.97;;
20042;SDS011;10182;52.896;6.496;2023-12-20T12:38:19;11.20;;;2.47;;
20042;SDS011;10182;52.896;6.496;2023-12-20T12:43:23;11.77;;;2.43;;
20042;SDS011;10182;52.896;6.496;2023-12-20T12:48:24;10.63;;;2.80;;
20042;SDS011;10182;52.896;6.496;2023-12-20T12:53:27;13.03;;;2.47;;
20042;SDS011;10182;52.896;6.496;2023-12-20T12:58:30;9.97;;;2.40;;
20042;SDS011;10182;52.896;6.496;2023-12-20T13:03:33;14.47;;;3.53;;
20042;SDS011;10182;52.896;6.496;2023-12-20T13:08:35;12.40;;;2.80;;
20042;SDS011;10182;52.896;6.496;2023-12-20T13:13:38;5.87;;;1.43;;
20042;SDS011;10182;52.896;6.496;2023-12-20T13:18:39;11.20;;;2.30;;
20042;SDS011;10182;52.896;6.496;2023-12-20T13:23:42;8.33;;;2.23;;
20042;SDS011;10182;52.896;6.496;2023-12-20T13:28:45;10.30;;;2.83;;
20042;SDS011;10182;52.896;6.496;2023-12-20T13:33:47;10.57;;;2.63;;
20042;SDS011;10182;52.896;6.496;2023-12-20T13:38:49;9.93;;;2.13;;
20042;SDS011;10182;52.896;6.496;2023-12-20T13:43:52;16.47;;;3.90;;
20042;SDS011;10182;52.896;6.496;2023-12-20T13:48:54;6.30;;;2.33;;
20042;SDS011;10182;52.896;6.496;2023-12-20T13:53:56;8.20;;;2.23;;
20042;SDS011;10182;52.896;6.496;2023-12-20T13:58:59;7.17;;;2.10;;
20042;SDS011;10182;52.896;6.496;2023-12-20T14:04:00;14.67;;;2.87;;
20042;SDS011;10182;52.896;6.496;2023-12-20T14:09:02;11.67;;;1.70;;
20042;SDS011;10182;52.896;6.496;2023-12-20T14:14:05;7.87;;;2.50;;
20042;SDS011;10182;52.896;6.496;2023-12-20T14:19:07;8.50;;;2.20;;
20042;SDS011;10182;52.896;6.496;2023-12-20T14:24:09;7.00;;;2.07;;
20042;SDS011;10182;52.896;6.496;2023-12-20T14:29:12;7.93;;;1.93;;
20042;SDS011;10182;52.896;6.496;2023-12-20T14:34:15;7.13;;;2.70;;
20042;SDS011;10182;52.896;6.496;2023-12-20T14:39:17;8.17;;;1.93;;
20042;SDS011;10182;52.896;6.496;2023-12-20T14:44:20;10.23;;;2.10;;
20042;SDS011;10182;52.896;6.496;2023-12-20T14:49:21;7.97;;;1.90;;
20042;SDS011;10182;52.896;6.496;2023-12-20T14:54:23;7.40;;;3.00;;
20042;SDS011;10182;52.896;6.496;2023-12-20T14:59:26;7.90;;;2.20;;
20042;SDS011;10182;52.896;6.496;2023-12-20T15:04:28;14.83;;;3.67;;
20042;SDS011;10182;52.896;6.496;2023-12-20T15:09:30;7.20;;;2.70;;
20042;SDS011;10182;52.896;6.496;2023-12-20T15:14:33;11.30;;;3.27;;
20042;SDS011;10182;52.896;6.496;2023-12-20T15:19:34;10.87;;;3.30;;
20042;SDS011;10182;52.896;6.496;2023-12-20T15:24:36;10.10;;;2.80;;
20042;SDS011;10182;52.896;6.496;2023-12-20T15:29:42;8.87;;;3.20;;
20042;SDS011;10182;52.896;6.496;2023-12-20T15:34:44;15.30;;;3.50;;
20042;SDS011;10182;52.896;6.496;2023-12-20T15:39:46;15.67;;;3.70;;
20042;SDS011;10182;52.896;6.496;2023-12-20T15:44:49;19.63;;;6.37;;
20042;SDS011;10182;52.896;6.496;2023-12-20T15:49:51;18.23;;;5.83;;
20042;SDS011;10182;52.896;6.496;2023-12-20T15:54:52;17.47;;;4.97;;
20042;SDS011;10182;52.896;6.496;2023-12-20T15:59:55;21.53;;;6.10;;
20042;SDS011;10182;52.896;6.496;2023-12-20T16:04:57;23.50;;;5.23;;
20042;SDS011;10182;52.896;6.496;2023-12-20T16:09:59;22.73;;;6.17;;
20042;SDS011;10182;52.896;6.496;2023-12-20T16:15:02;22.27;;;4.67;;
20042;SDS011;10182;52.896;6.496;2023-12-20T16:20:05;13.47;;;4.53;;
20042;SDS011;10182;52.896;6.496;2023-12-20T16:25:08;19.10;;;4.50;;
20042;SDS011;10182;52.896;6.496;2023-12-20T16:30:12;17.17;;;4.07;;
20042;SDS011;10182;52.896;6.496;2023-12-20T16:35:14;18.20;;;4.63;;
20042;SDS011;10182;52.896;6.496;2023-12-20T16:40:16;22.67;;;5.00;;
20042;SDS011;10182;52.896;6.496;2023-12-20T16:45:21;28.50;;;6.53;;
20042;SDS011;10182;52.896;6.496;2023-12-20T16:50:22;21.37;;;5.60;;
20042;SDS011;10182;52.896;6.496;2023-12-20T16:55:24;19.23;;;5.90;;
20042;SDS011;10182;52.896;6.496;2023-12-20T17:00:27;25.13;;;5.50;;
20042;SDS011;10182;52.896;6.496;2023-12-20T17:05:29;26.00;;;7.60;;
20042;SDS011;10182;52.896;6.496;2023-12-20T17:10:30;23.17;;;7.40;;
20042;SDS011;10182;52.896;6.496;2023-12-20T17:15:33;20.87;;;6.60;;
20042;SDS011;10182;52.896;6.496;2023-12-20T17:20:35;24.57;;;7.00;;
20042;SDS011;10182;52.896;6.496;2023-12-20T17:25:37;24.33;;;6.83;;
20042;SDS011;10182;52.896;6.496;2023-12-20T17:30:41;21.23;;;6.60;;
20042;SDS011;10182;52.896;6.496;2023-12-20T17:35:43;20.83;;;6.60;;
20042;SDS011;10182;52.896;6.496;2023-12-20T17:40:47;16.63;;;5.47;;
20042;SDS011;10182;52.896;6.496;2023-12-20T17:45:51;14.43;;;6.17;;
20042;SDS011;10182;52.896;6.496;2023-12-20T17:50:52;14.27;;;4.83;;
20042;SDS011;10182;52.896;6.496;2023-12-20T17:55:54;12.57;;;5.40;;
20042;SDS011;10182;52.896;6.496;2023-12-20T18:00:57;7.77;;;4.87;;
20042;SDS011;10182;52.896;6.496;2023-12-20T18:05:59;8.97;;;4.43;;
20042;SDS011;10182;52.896;6.496;2023-12-20T18:11:00;10.97;;;4.63;;
20042;SDS011;10182;52.896;6.496;2023-12-20T18:16:04;8.43;;;4.33;;
20042;SDS011;10182;52.896;6.496;2023-12-20T18:21:09;6.20;;;4.90;;
20042;SDS011;10182;52.896;6.496;2023-12-20T18:26:11;11.03;;;5.70;;
20042;SDS011;10182;52.896;6.496;2023-12-20T18:31:14;6.73;;;5.07;;
20042;SDS011;10182;52.896;6.496;2023-12-20T18:36:16;8.13;;;5.27;;
20042;SDS011;10182;52.896;6.496;2023-12-20T18:41:19;10.17;;;5.53;;
20042;SDS011;10182;52.896;6.496;2023-12-20T18:46:22;7.07;;;5.47;;
20042;SDS011;10182;52.896;6.496;2023-12-20T18:51:24;8.50;;;5.87;;
20042;SDS011;10182;52.896;6.496;2023-12-20T18:56:26;9.13;;;5.77;;
20042;SDS011;10182;52.896;6.496;2023-12-20T19:01:29;7.43;;;4.80;;
20042;SDS011;10182;52.896;6.496;2023-12-20T19:06:32;6.70;;;4.17;;
20042;SDS011;10182;52.896;6.496;2023-12-20T19:11:33;8.00;;;4.47;;
20042;SDS011;10182;52.896;6.496;2023-12-20T19:16:37;6.33;;;3.73;;
20042;SDS011;10182;52.896;6.496;2023-12-20T19:21:38;7.17;;;3.90;;
20042;SDS011;10182;52.896;6.496;2023-12-20T19:26:42;4.13;;;2.77;;
20042;SDS011;10182;52.896;6.496;2023-12-20T19:31:45;3.93;;;3.20;;
20042;SDS011;10182;52.896;6.496;2023-12-20T19:36:47;5.67;;;3.20;;
20042;SDS011;10182;52.896;6.496;2023-12-20T19:41:49;4.97;;;2.10;;
20042;SDS011;10182;52.896;6.496;2023-12-20T19:46:52;4.60;;;2.33;;
20042;SDS011;10182;52.896;6.496;2023-12-20T19:51:54;6.00;;;2.63;;
20042;SDS011;10182;52.896;6.496;2023-12-20T19:56:55;4.30;;;2.20;;
20042;SDS011;10182;52.896;6.496;2023-12-20T20:01:59;3.47;;;2.40;;
20042;SDS011;10182;52.896;6.496;2023-12-20T20:07:01;4.20;;;2.00;;
20042;SDS011;10182;52.896;6.496;2023-12-20T20:12:09;2.80;;;1.43;;
20042;SDS011;10182;52.896;6.496;2023-12-20T20:17:12;5.97;;;1.80;;
20042;SDS011;10182;52.896;6.496;2023-12-20T20:22:14;4.90;;;2.00;;
20042;SDS011;10182;52.896;6.496;2023-12-20T20:27:17;2.27;;;1.57;;
20042;SDS011;10182;52.896;6.496;2023-12-20T20:32:23;2.47;;;1.60;;
20042;SDS011;10182;52.896;6.496;2023-12-20T20:37:24;2.87;;;1.63;;
20042;SDS011;10182;52.896;6.496;2023-12-20T20:42:26;4.03;;;1.80;;
20042;SDS011;10182;52.896;6.496;2023-12-20T20:47:30;6.50;;;1.80;;
20042;SDS011;10182;52.896;6.496;2023-12-20T20:52:31;2.27;;;1.40;;
20042;SDS011;10182;52.896;6.496;2023-12-20T20:57:33;3.17;;;2.13;;
20042;SDS011;10182;52.896;6.496;2023-12-20T21:02:39;5.40;;;2.27;;
20042;SDS011;10182;52.896;6.496;2023-12-20T21:07:41;9.70;;;3.43;;
20042;SDS011;10182;52.896;6.496;2023-12-20T21:12:44;2.60;;;1.93;;
20042;SDS011;10182;52.896;6.496;2023-12-20T21:17:47;7.00;;;2.67;;
20042;SDS011;10182;52.896;6.496;2023-12-20T21:22:49;6.00;;;2.40;;
20042;SDS011;10182;52.896;6.496;2023-12-20T21:27:51;6.43;;;2.63;;
20042;SDS011;10182;52.896;6.496;2023-12-20T21:32:54;8.60;;;3.30;;
20042;SDS011;10182;52.896;6.496;2023-12-20T21:37:55;10.03;;;3.90;;
20042;SDS011;10182;52.896;6.496;2023-12-20T21:42:57;9.57;;;3.87;;
20042;SDS011;10182;52.896;6.496;2023-12-20T21:48:01;8.70;;;4.43;;
20042;SDS011;10182;52.896;6.496;2023-12-20T21:53:04;10.20;;;4.20;;
20042;SDS011;10182;52.896;6.496;2023-12-20T21:58:10;17.03;;;4.60;;
20042;SDS011;10182;52.896;6.496;2023-12-20T22:03:13;15.87;;;4.87;;
20042;SDS011;10182;52.896;6.496;2023-12-20T22:08:14;13.57;;;4.57;;
20042;SDS011;10182;52.896;6.496;2023-12-20T22:13:16;11.03;;;4.70;;
20042;SDS011;10182;52.896;6.496;2023-12-20T22:18:19;15.70;;;4.93;;
20042;SDS011;10182;52.896;6.496;2023-12-20T22:23:21;14.10;;;4.70;;
20042;SDS011;10182;52.896;6.496;2023-12-20T22:28:22;13.33;;;4.53;;
20042;SDS011;10182;52.896;6.496;2023-12-20T22:33:26;22.80;;;5.07;;
20042;SDS011;10182;52.896;6.496;2023-12-20T22:38:30;21.77;;;6.07;;
20042;SDS011;10182;52.896;6.496;2023-12-20T22:43:33;18.33;;;5.63;;
20042;SDS011;10182;52.896;6.496;2023-12-20T22:48:36;14.37;;;5.00;;
20042;SDS011;10182;52.896;6.496;2023-12-20T22:53:37;21.80;;;5.67;;
20042;SDS011;10182;52.896;6.496;2023-12-20T22:58:40;17.87;;;5.30;;
20042;SDS011;10182;52.896;6.496;2023-12-20T23:03:44;18.40;;;5.47;;
20042;SDS011;10182;52.896;6.496;2023-12-20T23:08:46;20.27;;;5.10;;
20042;SDS011;10182;52.896;6.496;2023-12-20T23:13:48;22.40;;;5.93;;
20042;SDS011;10182;52.896;6.496;2023-12-20T23:18:51;18.27;;;5.20;;
20042;SDS011;10182;52.896;6.496;2023-12-20T23:23:52;16.13;;;5.70;;
20042;SDS011;10182;52.896;6.496;2023-12-20T23:28:54;21.83;;;5.83;;
20042;SDS011;10182;52.896;6.496;2023-12-20T23:33:57;20.30;;;6.33;;
20042;SDS011;10182;52.896;6.496;2023-12-20T23:38:59;16.00;;;5.47;;
20042;SDS011;10182;52.896;6.496;2023-12-20T23:44:01;14.00;;;6.07;;
20042;SDS011;10182;52.896;6.496;2023-12-20T23:49:04;17.90;;;5.57;;
20042;SDS011;10182;52.896;6.496;2023-12-20T23:54:05;18.10;;;5.63;;
20042;SDS011;10182;52.896;6.496;2023-12-20T23:59:07;20.63;;;5.40;;
